KECS/ECS METAR and TAF weather

Enter ICAO airport designator
Station Type Date Time Source
KECS METAR 2020/07/06 23:55 UTC NOAA

KECS 062355Z AUTO 15013G19KT 10SM CLR 32/02 A2993 RMK AO2 LTG DSNT N


Station Type Date Time Source
KECS Decoded METAR 2020/07/06 23:55 UTC NOAA

Station name not available
Jul 06, 2020 - 07:55 PM EDT / 2020.07.06 2355 UTC
Wind: from the SSE (150 degrees) at 15 MPH (13 KT) gusting to 22 MPH (19 KT):0
Visibility: 10 mile(s):0
Sky conditions: clear
Weather: Lightning observed
Temperature: 89 F (32 C)
Dew Point: 35 F (2 C)
Relative Humidity: 14%
Pressure (altimeter): 29.93 in. Hg (1013 hPa)
ob: KECS 062355Z AUTO 15013G19KT 10SM CLR 32/02 A2993 RMK AO2 LTG DSNT N
cycle: 0

Station Type Date Time Source
KECS TAF UTC NOAA

Error!

Example: see airport list